createdAt,value
2022-08-17T00:00:34.184Z,32.47
2022-08-17T00:05:58.820Z,29.40
2022-08-17T00:11:01.591Z,30.65
2022-08-17T00:16:08.758Z,31.80
2022-08-17T00:21:11.827Z,32.00
2022-08-17T00:26:16.118Z,28.92
2022-08-17T00:31:39.248Z,26.45
2022-08-17T00:36:41.345Z,23.90
2022-08-17T00:41:43.120Z,26.67
2022-08-17T00:46:45.025Z,21.58
2022-08-17T00:51:50.541Z,20.15
2022-08-17T00:56:56.728Z,23.88
2022-08-17T01:01:59.206Z,23.13
2022-08-17T01:07:03.408Z,23.90
2022-08-17T01:12:08.456Z,29.45
2022-08-17T01:17:10.507Z,30.95
2022-08-17T01:22:11.982Z,33.40
2022-08-17T01:27:15.080Z,33.75
2022-08-17T01:32:20.189Z,29.58
2022-08-17T01:37:29.988Z,29.02
2022-08-17T01:42:46.573Z,32.88
2022-08-17T01:47:48.379Z,37.97
2022-08-17T01:52:56.401Z,36.40
2022-08-17T01:57:58.211Z,39.47
2022-08-17T02:03:00.538Z,37.95
2022-08-17T02:08:03.647Z,33.38
2022-08-17T02:13:07.333Z,29.70
2022-08-17T02:18:10.315Z,32.22
2022-08-17T02:23:13.171Z,31.48
2022-08-17T02:28:15.128Z,32.70
2022-08-17T02:33:16.711Z,34.53
2022-08-17T02:38:21.879Z,37.70
2022-08-17T02:43:23.390Z,36.50
2022-08-17T02:48:29.708Z,43.63
2022-08-17T02:53:36.165Z,33.45
2022-08-17T02:58:37.881Z,33.20
2022-08-17T03:03:40.012Z,33.83
2022-08-17T03:08:41.527Z,38.63
2022-08-17T03:13:43.037Z,34.38
2022-08-17T03:18:44.555Z,32.53
2022-08-17T03:23:46.119Z,31.00
2022-08-17T03:28:47.792Z,32.05
2022-08-17T03:33:49.409Z,34.45
2022-08-17T03:38:51.074Z,33.47
2022-08-17T03:43:52.705Z,33.08
2022-08-17T03:49:13.104Z,36.05
2022-08-17T03:54:33.172Z,31.33
2022-08-17T03:59:36.216Z,31.15
2022-08-17T04:04:38.480Z,29.95
2022-08-17T04:09:40.030Z,22.90
2022-08-17T04:14:51.626Z,25.92
2022-08-17T04:19:56.275Z,27.30
2022-08-17T04:24:57.914Z,23.20
2022-08-17T04:30:00.974Z,23.23
2022-08-17T04:35:02.507Z,21.40
2022-08-17T04:40:22.851Z,10.05
2022-08-17T04:45:32.427Z,19.67
2022-08-17T04:50:36.030Z,16.50
2022-08-17T04:55:38.161Z,15.93
2022-08-17T05:00:40.092Z,15.88
2022-08-17T05:05:43.337Z,17.55
2022-08-17T05:10:45.811Z,15.13
2022-08-17T05:15:49.710Z,13.32
2022-08-17T05:20:52.534Z,9.35
2022-08-17T05:25:56.393Z,14.63
2022-08-17T05:31:01.312Z,18.25
2022-08-17T05:36:05.351Z,13.68
2022-08-17T05:46:27.361Z,17.33
2022-08-17T05:51:53.012Z,16.50
2022-08-17T05:57:06.680Z,19.13
2022-08-17T06:02:23.328Z,16.23
2022-08-17T06:07:31.593Z,16.63
2022-08-17T06:12:57.591Z,17.23
2022-08-17T06:18:05.846Z,18.23
2022-08-17T06:23:12.722Z,25.88
2022-08-17T06:28:18.782Z,21.40
2022-08-17T06:33:26.643Z,20.45
2022-08-17T06:38:41.210Z,18.48
2022-08-17T06:44:06.866Z,19.65
2022-08-17T06:49:30.155Z,21.67
2022-08-17T06:54:39.371Z,23.50
2022-08-17T06:59:56.451Z,21.65
2022-08-17T07:05:01.704Z,29.42
2022-08-17T07:10:03.610Z,23.75
2022-08-17T07:15:12.487Z,25.35
2022-08-17T07:20:23.307Z,24.80
2022-08-17T07:25:25.783Z,27.08
2022-08-17T07:30:45.554Z,27.52
2022-08-17T07:35:50.017Z,31.23
2022-08-17T07:40:58.038Z,30.30
2022-08-17T07:46:24.041Z,32.63
2022-08-17T07:51:28.767Z,27.20
2022-08-17T07:57:00.386Z,26.70
2022-08-17T08:02:16.268Z,27.33
2022-08-17T08:07:20.216Z,28.38
2022-08-17T08:12:24.680Z,28.20
2022-08-17T08:17:44.797Z,27.00
2022-08-17T08:22:57.768Z,26.60
2022-08-17T08:28:27.538Z,27.35
2022-08-17T08:33:49.248Z,28.55
2022-08-17T08:39:02.905Z,29.65
2022-08-17T08:44:59.528Z,29.23
2022-08-17T08:50:07.587Z,30.38
2022-08-17T08:55:34.426Z,27.50
2022-08-17T09:00:44.055Z,26.95
2022-08-17T09:06:33.330Z,25.60
2022-08-17T09:12:01.031Z,27.52
2022-08-17T09:17:14.298Z,30.85
2022-08-17T09:22:26.412Z,24.98
2022-08-17T09:27:34.874Z,24.83
2022-08-17T09:32:39.404Z,24.08
2022-08-17T09:38:02.124Z,22.67
2022-08-17T09:43:19.937Z,24.13
2022-08-17T09:48:29.186Z,26.10
2022-08-17T09:53:32.194Z,20.38
2022-08-17T09:58:52.061Z,20.75
2022-08-17T10:04:18.729Z,20.70
2022-08-17T10:09:55.579Z,21.00
2022-08-17T10:14:59.894Z,17.58
2022-08-17T10:20:17.179Z,15.07
2022-08-17T10:25:54.038Z,19.80
2022-08-17T10:31:30.983Z,13.50
2022-08-17T10:36:52.415Z,16.00
2022-08-17T10:41:59.227Z,11.90
2022-08-17T10:47:14.397Z,9.50
2022-08-17T10:52:28.058Z,10.63
2022-08-17T10:57:29.660Z,11.20
2022-08-17T11:02:50.971Z,10.68
2022-08-17T11:08:14.454Z,8.05
2022-08-17T11:13:35.404Z,6.78
2022-08-17T11:19:08.571Z,7.57
2022-08-17T11:24:14.727Z,6.82
2022-08-17T11:29:24.776Z,8.02
2022-08-17T11:34:29.982Z,6.88
2022-08-17T11:39:34.826Z,9.15
2022-08-17T11:44:59.541Z,11.10
2022-08-17T11:50:36.646Z,7.35
2022-08-17T11:55:41.868Z,10.23
2022-08-17T12:00:46.324Z,11.30
2022-08-17T12:05:48.440Z,13.45
2022-08-17T12:10:56.005Z,8.10
2022-08-17T12:15:58.332Z,7.60
2022-08-17T12:21:22.157Z,8.00
2022-08-17T12:26:31.606Z,12.43
2022-08-17T12:31:47.192Z,7.25
2022-08-17T12:36:51.309Z,7.15
2022-08-17T12:42:01.963Z,10.15
2022-08-17T12:47:19.354Z,11.10
2022-08-17T12:52:26.743Z,11.82
2022-08-17T12:57:47.568Z,8.15
2022-08-17T13:03:21.725Z,12.02
2022-08-17T13:08:45.466Z,10.27
2022-08-17T13:13:54.833Z,10.88
2022-08-17T13:19:15.092Z,16.98
2022-08-17T13:24:38.206Z,11.30
2022-08-17T13:29:52.968Z,11.38
2022-08-17T13:35:12.867Z,11.05
2022-08-17T13:40:18.185Z,12.27
2022-08-17T13:45:36.514Z,11.18
2022-08-17T13:50:47.674Z,8.50
2022-08-17T13:55:59.224Z,9.00
2022-08-17T14:01:34.049Z,13.43
2022-08-17T14:06:53.984Z,10.60
2022-08-17T14:11:58.170Z,10.07
2022-08-17T14:16:59.789Z,9.18
2022-08-17T14:22:01.791Z,6.63
2022-08-17T14:27:05.341Z,7.10
2022-08-17T14:32:17.725Z,13.68
2022-08-17T14:37:21.088Z,9.63
2022-08-17T14:42:27.053Z,7.35
2022-08-17T14:47:28.594Z,9.07
2022-08-17T14:52:30.426Z,11.38
2022-08-17T14:57:34.078Z,7.78
2022-08-17T15:02:54.691Z,8.93
2022-08-17T15:07:56.349Z,7.82
2022-08-17T15:13:00.182Z,8.32
2022-08-17T15:18:02.383Z,9.15
2022-08-17T15:23:04.372Z,8.00
2022-08-17T15:28:07.371Z,7.47
2022-08-17T15:33:19.047Z,9.52
2022-08-17T15:38:20.645Z,8.55
2022-08-17T15:43:28.390Z,12.30
2022-08-17T15:48:41.716Z,15.27
2022-08-17T15:53:45.818Z,8.35
2022-08-17T15:58:48.668Z,9.98
2022-08-17T16:04:03.975Z,11.68
2022-08-17T16:09:08.897Z,13.25
2022-08-17T16:14:10.418Z,10.80
2022-08-17T16:19:15.338Z,9.35
2022-08-17T16:24:16.859Z,16.42
2022-08-17T16:29:18.498Z,10.32
2022-08-17T16:34:20.027Z,7.50
2022-08-17T16:39:21.627Z,11.63
2022-08-17T16:44:23.572Z,7.60
2022-08-17T16:49:37.465Z,4.88
2022-08-17T16:54:44.377Z,5.82
2022-08-17T16:59:51.332Z,5.05
2022-08-17T17:05:05.818Z,4.55
2022-08-17T17:10:14.117Z,4.18
2022-08-17T17:15:22.010Z,5.05
2022-08-17T17:20:28.366Z,6.03
2022-08-17T17:25:44.500Z,6.32
2022-08-17T17:30:50.303Z,8.93
2022-08-17T17:35:59.085Z,6.93
2022-08-17T17:41:05.489Z,7.47
2022-08-17T17:46:29.162Z,6.43
2022-08-17T17:52:05.899Z,4.35
2022-08-17T17:57:20.485Z,6.72
2022-08-17T18:02:53.160Z,4.38
2022-08-17T18:08:31.927Z,4.38
2022-08-17T18:13:53.505Z,4.45
2022-08-17T18:18:57.651Z,4.75
2022-08-17T18:24:01.262Z,6.75
2022-08-17T18:34:45.808Z,7.10
2022-08-17T18:39:46.846Z,10.90
2022-08-17T18:44:54.331Z,8.65
2022-08-17T18:50:25.477Z,13.95
2022-08-17T18:55:29.231Z,12.50
2022-08-17T19:00:33.691Z,10.45
2022-08-17T19:05:41.969Z,10.02
2022-08-17T19:10:47.145Z,12.77
2022-08-17T19:16:29.918Z,11.80
2022-08-17T19:21:40.270Z,13.88
2022-08-17T19:26:54.452Z,15.48
2022-08-17T19:31:59.294Z,15.00
2022-08-17T19:37:23.242Z,15.15
2022-08-17T19:43:03.114Z,14.85
2022-08-17T19:48:07.557Z,15.35
2022-08-17T19:54:04.816Z,14.65
2022-08-17T19:59:36.368Z,13.40
2022-08-17T20:04:43.056Z,13.73
2022-08-17T20:09:51.623Z,14.95
2022-08-17T20:14:57.612Z,18.33
2022-08-17T20:20:25.856Z,16.15
2022-08-17T20:25:46.835Z,17.50
2022-08-17T20:30:48.759Z,19.38
2022-08-17T20:36:09.951Z,23.42
2022-08-17T20:41:15.393Z,20.77
2022-08-17T20:46:28.892Z,22.20
2022-08-17T20:51:40.138Z,23.08
2022-08-17T20:56:44.692Z,29.23
2022-08-17T21:02:02.618Z,17.40
2022-08-17T21:07:43.030Z,18.48
2022-08-17T21:12:53.950Z,21.52
2022-08-17T21:18:12.734Z,27.30
2022-08-17T21:23:30.249Z,21.30
2022-08-17T21:29:00.348Z,23.00
2022-08-17T21:34:14.880Z,20.38
2022-08-17T21:44:50.299Z,12.77
2022-08-17T21:49:53.492Z,13.35
2022-08-17T21:55:02.286Z,14.43
2022-08-17T22:00:15.978Z,11.60
2022-08-17T22:05:31.880Z,8.30
2022-08-17T22:11:01.084Z,8.57
2022-08-17T22:16:28.319Z,9.73
2022-08-17T22:21:31.159Z,10.48
2022-08-17T22:27:03.075Z,8.02
2022-08-17T22:32:04.953Z,7.72
2022-08-17T22:37:28.381Z,6.22
2022-08-17T22:42:30.042Z,7.65
2022-08-17T22:47:40.899Z,6.07
2022-08-17T22:53:14.001Z,5.03
2022-08-17T22:58:38.248Z,5.93
2022-08-17T23:03:54.994Z,5.05
2022-08-17T23:08:57.602Z,4.15
2022-08-17T23:13:59.370Z,6.95
2022-08-17T23:19:00.915Z,4.72
2022-08-17T23:24:04.626Z,4.97
2022-08-17T23:29:08.907Z,4.00
2022-08-17T23:34:13.131Z,4.70
2022-08-17T23:39:14.666Z,3.67
2022-08-17T23:44:27.628Z,5.60
2022-08-17T23:49:31.185Z,4.35
2022-08-17T23:54:43.503Z,4.90
2022-08-17T23:59:45.126Z,6.35
